sensor_id;sensor_type;location;lat;lon;timestamp;P1;durP1;ratioP1;P2;durP2;ratioP2
72895;SDS011;61036;53.224;6.554;2024-01-06T00:01:40;15.60;;;12.07;;
72895;SDS011;61036;53.224;6.554;2024-01-06T00:04:06;15.00;;;11.90;;
72895;SDS011;61036;53.224;6.554;2024-01-06T00:06:31;14.83;;;11.23;;
72895;SDS011;61036;53.224;6.554;2024-01-06T00:08:57;14.23;;;11.03;;
72895;SDS011;61036;53.224;6.554;2024-01-06T00:11:23;14.30;;;11.60;;
72895;SDS011;61036;53.224;6.554;2024-01-06T00:13:48;15.37;;;12.30;;
72895;SDS011;61036;53.224;6.554;2024-01-06T00:16:18;15.60;;;11.90;;
72895;SDS011;61036;53.224;6.554;2024-01-06T00:18:44;14.77;;;11.70;;
72895;SDS011;61036;53.224;6.554;2024-01-06T00:21:10;15.27;;;11.13;;
72895;SDS011;61036;53.224;6.554;2024-01-06T00:23:36;13.97;;;10.90;;
72895;SDS011;61036;53.224;6.554;2024-01-06T00:26:01;15.33;;;11.60;;
72895;SDS011;61036;53.224;6.554;2024-01-06T00:28:27;13.80;;;10.47;;
72895;SDS011;61036;53.224;6.554;2024-01-06T00:30:53;12.20;;;10.03;;
72895;SDS011;61036;53.224;6.554;2024-01-06T00:33:18;13.57;;;10.40;;
72895;SDS011;61036;53.224;6.554;2024-01-06T00:35:44;13.40;;;10.07;;
72895;SDS011;61036;53.224;6.554;2024-01-06T00:38:09;14.23;;;10.63;;
72895;SDS011;61036;53.224;6.554;2024-01-06T00:40:35;14.37;;;10.80;;
72895;SDS011;61036;53.224;6.554;2024-01-06T00:43:00;14.30;;;10.90;;
72895;SDS011;61036;53.224;6.554;2024-01-06T00:45:26;14.30;;;10.90;;
72895;SDS011;61036;53.224;6.554;2024-01-06T00:47:52;15.10;;;10.90;;
72895;SDS011;61036;53.224;6.554;2024-01-06T00:50:17;14.60;;;11.33;;
72895;SDS011;61036;53.224;6.554;2024-01-06T00:52:44;14.67;;;11.50;;
72895;SDS011;61036;53.224;6.554;2024-01-06T00:55:10;14.50;;;10.77;;
72895;SDS011;61036;53.224;6.554;2024-01-06T00:57:35;15.83;;;11.17;;
72895;SDS011;61036;53.224;6.554;2024-01-06T01:00:02;13.77;;;10.97;;
72895;SDS011;61036;53.224;6.554;2024-01-06T01:02:31;14.30;;;10.93;;
72895;SDS011;61036;53.224;6.554;2024-01-06T01:04:56;14.30;;;10.90;;
72895;SDS011;61036;53.224;6.554;2024-01-06T01:07:23;13.93;;;10.40;;
72895;SDS011;61036;53.224;6.554;2024-01-06T01:09:49;14.97;;;11.50;;
72895;SDS011;61036;53.224;6.554;2024-01-06T01:12:14;15.10;;;10.40;;
72895;SDS011;61036;53.224;6.554;2024-01-06T01:14:40;13.70;;;10.57;;
72895;SDS011;61036;53.224;6.554;2024-01-06T01:17:05;14.23;;;10.63;;
72895;SDS011;61036;53.224;6.554;2024-01-06T01:19:31;14.87;;;10.30;;
72895;SDS011;61036;53.224;6.554;2024-01-06T01:21:56;13.37;;;9.67;;
72895;SDS011;61036;53.224;6.554;2024-01-06T01:24:22;13.87;;;9.90;;
72895;SDS011;61036;53.224;6.554;2024-01-06T01:26:48;13.57;;;10.03;;
72895;SDS011;61036;53.224;6.554;2024-01-06T01:29:14;12.73;;;9.83;;
72895;SDS011;61036;53.224;6.554;2024-01-06T01:31:40;13.57;;;10.17;;
72895;SDS011;61036;53.224;6.554;2024-01-06T01:34:06;15.00;;;10.40;;
72895;SDS011;61036;53.224;6.554;2024-01-06T01:36:31;14.07;;;11.13;;
72895;SDS011;61036;53.224;6.554;2024-01-06T01:38:56;14.47;;;10.73;;
72895;SDS011;61036;53.224;6.554;2024-01-06T01:41:22;14.60;;;10.37;;
72895;SDS011;61036;53.224;6.554;2024-01-06T01:43:48;15.27;;;10.73;;
72895;SDS011;61036;53.224;6.554;2024-01-06T01:46:13;13.77;;;10.23;;
72895;SDS011;61036;53.224;6.554;2024-01-06T01:48:39;13.10;;;9.97;;
72895;SDS011;61036;53.224;6.554;2024-01-06T01:51:05;14.70;;;10.87;;
72895;SDS011;61036;53.224;6.554;2024-01-06T01:53:32;13.23;;;9.73;;
72895;SDS011;61036;53.224;6.554;2024-01-06T01:55:58;14.23;;;9.97;;
72895;SDS011;61036;53.224;6.554;2024-01-06T01:58:24;12.00;;;9.50;;
72895;SDS011;61036;53.224;6.554;2024-01-06T02:00:50;12.23;;;9.33;;
72895;SDS011;61036;53.224;6.554;2024-01-06T02:03:16;15.77;;;9.57;;
72895;SDS011;61036;53.224;6.554;2024-01-06T02:05:41;12.50;;;9.63;;
72895;SDS011;61036;53.224;6.554;2024-01-06T02:08:07;12.43;;;9.50;;
72895;SDS011;61036;53.224;6.554;2024-01-06T02:10:33;13.37;;;10.10;;
72895;SDS011;61036;53.224;6.554;2024-01-06T02:13:09;13.67;;;10.43;;
72895;SDS011;61036;53.224;6.554;2024-01-06T02:15:35;15.07;;;9.90;;
72895;SDS011;61036;53.224;6.554;2024-01-06T02:18:00;14.80;;;10.07;;
72895;SDS011;61036;53.224;6.554;2024-01-06T02:20:26;14.30;;;10.60;;
72895;SDS011;61036;53.224;6.554;2024-01-06T02:22:54;14.47;;;10.20;;
72895;SDS011;61036;53.224;6.554;2024-01-06T02:25:19;13.73;;;9.47;;
72895;SDS011;61036;53.224;6.554;2024-01-06T02:27:45;13.10;;;9.23;;
72895;SDS011;61036;53.224;6.554;2024-01-06T02:30:10;15.00;;;10.03;;
72895;SDS011;61036;53.224;6.554;2024-01-06T02:32:36;15.13;;;10.17;;
72895;SDS011;61036;53.224;6.554;2024-01-06T02:35:02;12.57;;;9.40;;
72895;SDS011;61036;53.224;6.554;2024-01-06T02:37:27;15.63;;;10.70;;
72895;SDS011;61036;53.224;6.554;2024-01-06T02:39:53;14.77;;;10.17;;
72895;SDS011;61036;53.224;6.554;2024-01-06T02:42:19;14.73;;;9.70;;
72895;SDS011;61036;53.224;6.554;2024-01-06T02:44:44;14.03;;;9.70;;
72895;SDS011;61036;53.224;6.554;2024-01-06T02:47:10;13.43;;;9.57;;
72895;SDS011;61036;53.224;6.554;2024-01-06T02:49:35;13.03;;;9.73;;
72895;SDS011;61036;53.224;6.554;2024-01-06T02:52:01;13.37;;;9.87;;
72895;SDS011;61036;53.224;6.554;2024-01-06T02:54:26;13.40;;;9.30;;
72895;SDS011;61036;53.224;6.554;2024-01-06T02:56:52;12.43;;;9.70;;
72895;SDS011;61036;53.224;6.554;2024-01-06T02:59:17;11.77;;;8.37;;
72895;SDS011;61036;53.224;6.554;2024-01-06T03:01:43;13.07;;;9.07;;
72895;SDS011;61036;53.224;6.554;2024-01-06T03:04:08;13.73;;;9.37;;
72895;SDS011;61036;53.224;6.554;2024-01-06T03:06:34;11.40;;;8.70;;
72895;SDS011;61036;53.224;6.554;2024-01-06T03:09:00;13.53;;;10.00;;
72895;SDS011;61036;53.224;6.554;2024-01-06T03:11:26;15.87;;;10.73;;
72895;SDS011;61036;53.224;6.554;2024-01-06T03:13:51;15.77;;;10.37;;
72895;SDS011;61036;53.224;6.554;2024-01-06T03:16:17;16.87;;;11.80;;
72895;SDS011;61036;53.224;6.554;2024-01-06T03:18:42;17.63;;;11.53;;
72895;SDS011;61036;53.224;6.554;2024-01-06T03:21:17;16.27;;;11.80;;
72895;SDS011;61036;53.224;6.554;2024-01-06T03:23:44;16.37;;;11.07;;
72895;SDS011;61036;53.224;6.554;2024-01-06T03:26:09;16.00;;;11.27;;
72895;SDS011;61036;53.224;6.554;2024-01-06T03:28:35;17.53;;;12.93;;
72895;SDS011;61036;53.224;6.554;2024-01-06T03:31:00;19.10;;;13.70;;
72895;SDS011;61036;53.224;6.554;2024-01-06T03:33:25;18.07;;;12.27;;
72895;SDS011;61036;53.224;6.554;2024-01-06T03:35:51;19.63;;;14.17;;
72895;SDS011;61036;53.224;6.554;2024-01-06T03:38:16;19.83;;;13.73;;
72895;SDS011;61036;53.224;6.554;2024-01-06T03:40:42;20.73;;;13.63;;
72895;SDS011;61036;53.224;6.554;2024-01-06T03:43:07;19.80;;;13.83;;
72895;SDS011;61036;53.224;6.554;2024-01-06T03:45:33;17.27;;;12.97;;
72895;SDS011;61036;53.224;6.554;2024-01-06T03:47:58;19.13;;;13.63;;
72895;SDS011;61036;53.224;6.554;2024-01-06T03:50:24;16.60;;;12.10;;
72895;SDS011;61036;53.224;6.554;2024-01-06T03:52:49;17.63;;;12.83;;
72895;SDS011;61036;53.224;6.554;2024-01-06T03:55:15;17.93;;;12.33;;
72895;SDS011;61036;53.224;6.554;2024-01-06T03:57:41;17.30;;;12.23;;
72895;SDS011;61036;53.224;6.554;2024-01-06T04:00:07;16.77;;;12.10;;
72895;SDS011;61036;53.224;6.554;2024-01-06T04:02:33;16.57;;;12.00;;
72895;SDS011;61036;53.224;6.554;2024-01-06T04:04:59;16.63;;;13.17;;
72895;SDS011;61036;53.224;6.554;2024-01-06T04:07:24;17.00;;;12.30;;
72895;SDS011;61036;53.224;6.554;2024-01-06T04:09:50;16.07;;;11.50;;
72895;SDS011;61036;53.224;6.554;2024-01-06T04:12:15;18.90;;;11.90;;
72895;SDS011;61036;53.224;6.554;2024-01-06T04:14:41;18.37;;;12.27;;
72895;SDS011;61036;53.224;6.554;2024-01-06T04:17:07;15.00;;;10.60;;
72895;SDS011;61036;53.224;6.554;2024-01-06T04:19:32;15.40;;;11.07;;
72895;SDS011;61036;53.224;6.554;2024-01-06T04:21:57;16.67;;;11.73;;
72895;SDS011;61036;53.224;6.554;2024-01-06T04:24:23;15.53;;;11.10;;
72895;SDS011;61036;53.224;6.554;2024-01-06T04:26:49;17.20;;;12.13;;
72895;SDS011;61036;53.224;6.554;2024-01-06T04:29:15;19.67;;;12.80;;
72895;SDS011;61036;53.224;6.554;2024-01-06T04:31:41;19.63;;;12.60;;
72895;SDS011;61036;53.224;6.554;2024-01-06T04:34:06;15.77;;;11.97;;
72895;SDS011;61036;53.224;6.554;2024-01-06T04:36:32;16.67;;;11.00;;
72895;SDS011;61036;53.224;6.554;2024-01-06T04:38:58;16.93;;;12.10;;
72895;SDS011;61036;53.224;6.554;2024-01-06T04:41:23;17.00;;;12.17;;
72895;SDS011;61036;53.224;6.554;2024-01-06T04:43:49;17.13;;;11.90;;
72895;SDS011;61036;53.224;6.554;2024-01-06T04:46:14;15.20;;;11.83;;
72895;SDS011;61036;53.224;6.554;2024-01-06T04:48:40;17.53;;;12.10;;
72895;SDS011;61036;53.224;6.554;2024-01-06T04:51:06;17.90;;;12.60;;
72895;SDS011;61036;53.224;6.554;2024-01-06T04:53:38;17.13;;;12.53;;
72895;SDS011;61036;53.224;6.554;2024-01-06T04:56:04;15.90;;;11.20;;
72895;SDS011;61036;53.224;6.554;2024-01-06T04:58:29;16.20;;;11.33;;
72895;SDS011;61036;53.224;6.554;2024-01-06T05:00:55;15.43;;;11.97;;
72895;SDS011;61036;53.224;6.554;2024-01-06T05:03:21;16.77;;;12.03;;
72895;SDS011;61036;53.224;6.554;2024-01-06T05:05:46;15.50;;;11.47;;
72895;SDS011;61036;53.224;6.554;2024-01-06T05:08:12;13.73;;;11.10;;
72895;SDS011;61036;53.224;6.554;2024-01-06T05:10:37;14.43;;;10.87;;
72895;SDS011;61036;53.224;6.554;2024-01-06T05:13:03;14.67;;;11.07;;
72895;SDS011;61036;53.224;6.554;2024-01-06T05:15:28;15.17;;;10.90;;
72895;SDS011;61036;53.224;6.554;2024-01-06T05:17:54;14.17;;;10.17;;
72895;SDS011;61036;53.224;6.554;2024-01-06T05:20:20;14.13;;;10.63;;
72895;SDS011;61036;53.224;6.554;2024-01-06T05:22:45;15.37;;;10.57;;
72895;SDS011;61036;53.224;6.554;2024-01-06T05:25:11;18.13;;;11.33;;
72895;SDS011;61036;53.224;6.554;2024-01-06T05:27:36;13.93;;;10.07;;
72895;SDS011;61036;53.224;6.554;2024-01-06T05:30:02;15.73;;;10.73;;
72895;SDS011;61036;53.224;6.554;2024-01-06T05:32:28;14.13;;;10.43;;
72895;SDS011;61036;53.224;6.554;2024-01-06T05:34:53;13.87;;;9.47;;
72895;SDS011;61036;53.224;6.554;2024-01-06T05:37:19;13.47;;;10.07;;
72895;SDS011;61036;53.224;6.554;2024-01-06T05:39:44;15.47;;;10.60;;
72895;SDS011;61036;53.224;6.554;2024-01-06T05:42:10;14.23;;;9.93;;
72895;SDS011;61036;53.224;6.554;2024-01-06T05:44:39;12.17;;;9.23;;
72895;SDS011;61036;53.224;6.554;2024-01-06T05:47:06;13.23;;;9.20;;
72895;SDS011;61036;53.224;6.554;2024-01-06T05:49:33;12.73;;;9.20;;
72895;SDS011;61036;53.224;6.554;2024-01-06T05:51:59;14.33;;;9.57;;
72895;SDS011;61036;53.224;6.554;2024-01-06T05:54:24;12.27;;;9.90;;
72895;SDS011;61036;53.224;6.554;2024-01-06T05:56:50;13.43;;;10.50;;
72895;SDS011;61036;53.224;6.554;2024-01-06T05:59:16;13.60;;;10.43;;
72895;SDS011;61036;53.224;6.554;2024-01-06T06:01:41;12.17;;;9.33;;
72895;SDS011;61036;53.224;6.554;2024-01-06T06:04:08;12.50;;;10.13;;
72895;SDS011;61036;53.224;6.554;2024-01-06T06:06:34;15.77;;;10.50;;
72895;SDS011;61036;53.224;6.554;2024-01-06T06:09:00;13.90;;;9.77;;
72895;SDS011;61036;53.224;6.554;2024-01-06T06:11:25;13.77;;;10.80;;
72895;SDS011;61036;53.224;6.554;2024-01-06T06:13:51;15.80;;;11.33;;
72895;SDS011;61036;53.224;6.554;2024-01-06T06:16:16;13.73;;;10.63;;
72895;SDS011;61036;53.224;6.554;2024-01-06T06:18:42;12.73;;;9.93;;
72895;SDS011;61036;53.224;6.554;2024-01-06T06:21:07;14.00;;;9.80;;
72895;SDS011;61036;53.224;6.554;2024-01-06T06:23:33;13.90;;;10.57;;
72895;SDS011;61036;53.224;6.554;2024-01-06T06:25:59;14.57;;;10.83;;
72895;SDS011;61036;53.224;6.554;2024-01-06T06:28:28;13.33;;;10.37;;
72895;SDS011;61036;53.224;6.554;2024-01-06T06:30:53;15.73;;;12.10;;
72895;SDS011;61036;53.224;6.554;2024-01-06T06:33:19;15.90;;;11.13;;
72895;SDS011;61036;53.224;6.554;2024-01-06T06:35:44;15.10;;;10.93;;
72895;SDS011;61036;53.224;6.554;2024-01-06T06:38:10;14.93;;;11.03;;
72895;SDS011;61036;53.224;6.554;2024-01-06T06:40:35;14.33;;;11.67;;
72895;SDS011;61036;53.224;6.554;2024-01-06T06:43:01;16.87;;;11.67;;
72895;SDS011;61036;53.224;6.554;2024-01-06T06:45:26;15.90;;;11.43;;
72895;SDS011;61036;53.224;6.554;2024-01-06T06:47:52;17.37;;;12.53;;
72895;SDS011;61036;53.224;6.554;2024-01-06T06:50:17;15.93;;;11.73;;
72895;SDS011;61036;53.224;6.554;2024-01-06T06:52:44;16.57;;;11.80;;
72895;SDS011;61036;53.224;6.554;2024-01-06T06:55:09;16.03;;;12.40;;
72895;SDS011;61036;53.224;6.554;2024-01-06T06:57:35;16.27;;;12.33;;
72895;SDS011;61036;53.224;6.554;2024-01-06T07:00:01;19.33;;;13.37;;
72895;SDS011;61036;53.224;6.554;2024-01-06T07:02:27;17.30;;;12.73;;
72895;SDS011;61036;53.224;6.554;2024-01-06T07:04:52;16.83;;;12.53;;
72895;SDS011;61036;53.224;6.554;2024-01-06T07:07:18;18.47;;;13.33;;
72895;SDS011;61036;53.224;6.554;2024-01-06T07:09:44;18.60;;;12.90;;
72895;SDS011;61036;53.224;6.554;2024-01-06T07:12:10;18.00;;;13.43;;
72895;SDS011;61036;53.224;6.554;2024-01-06T07:14:35;17.87;;;13.27;;
72895;SDS011;61036;53.224;6.554;2024-01-06T07:17:02;19.67;;;13.90;;
72895;SDS011;61036;53.224;6.554;2024-01-06T07:19:29;17.83;;;13.67;;
72895;SDS011;61036;53.224;6.554;2024-01-06T07:21:56;16.33;;;12.80;;
72895;SDS011;61036;53.224;6.554;2024-01-06T07:24:21;19.37;;;12.97;;
72895;SDS011;61036;53.224;6.554;2024-01-06T07:26:47;19.57;;;14.33;;
72895;SDS011;61036;53.224;6.554;2024-01-06T07:29:12;19.73;;;13.43;;
72895;SDS011;61036;53.224;6.554;2024-01-06T07:31:38;19.37;;;14.27;;
72895;SDS011;61036;53.224;6.554;2024-01-06T07:34:03;17.00;;;12.93;;
72895;SDS011;61036;53.224;6.554;2024-01-06T07:36:28;18.17;;;13.23;;
72895;SDS011;61036;53.224;6.554;2024-01-06T07:38:54;16.20;;;13.33;;
72895;SDS011;61036;53.224;6.554;2024-01-06T07:41:21;20.03;;;15.03;;
72895;SDS011;61036;53.224;6.554;2024-01-06T07:43:46;21.57;;;14.47;;
72895;SDS011;61036;53.224;6.554;2024-01-06T07:46:12;18.93;;;14.37;;
72895;SDS011;61036;53.224;6.554;2024-01-06T07:48:37;19.60;;;14.37;;
72895;SDS011;61036;53.224;6.554;2024-01-06T07:51:03;19.87;;;14.23;;
72895;SDS011;61036;53.224;6.554;2024-01-06T07:53:29;20.20;;;15.67;;
72895;SDS011;61036;53.224;6.554;2024-01-06T07:55:54;18.23;;;14.77;;
72895;SDS011;61036;53.224;6.554;2024-01-06T07:58:20;20.87;;;15.57;;
72895;SDS011;61036;53.224;6.554;2024-01-06T08:00:47;19.30;;;14.57;;
72895;SDS011;61036;53.224;6.554;2024-01-06T08:03:13;20.33;;;16.17;;
72895;SDS011;61036;53.224;6.554;2024-01-06T08:05:38;19.03;;;14.93;;
72895;SDS011;61036;53.224;6.554;2024-01-06T08:08:04;19.67;;;14.43;;
72895;SDS011;61036;53.224;6.554;2024-01-06T08:10:30;19.17;;;15.20;;
72895;SDS011;61036;53.224;6.554;2024-01-06T08:12:56;21.07;;;15.13;;
72895;SDS011;61036;53.224;6.554;2024-01-06T08:15:22;21.87;;;15.73;;
72895;SDS011;61036;53.224;6.554;2024-01-06T08:17:47;19.50;;;14.97;;
72895;SDS011;61036;53.224;6.554;2024-01-06T08:20:13;20.70;;;16.30;;
72895;SDS011;61036;53.224;6.554;2024-01-06T08:22:39;19.07;;;14.40;;
72895;SDS011;61036;53.224;6.554;2024-01-06T08:25:04;17.97;;;13.87;;
72895;SDS011;61036;53.224;6.554;2024-01-06T08:27:33;18.80;;;14.77;;
72895;SDS011;61036;53.224;6.554;2024-01-06T08:29:59;19.17;;;14.90;;
72895;SDS011;61036;53.224;6.554;2024-01-06T08:32:25;20.63;;;15.50;;
72895;SDS011;61036;53.224;6.554;2024-01-06T08:34:51;20.57;;;14.93;;
72895;SDS011;61036;53.224;6.554;2024-01-06T08:37:16;20.17;;;15.43;;
72895;SDS011;61036;53.224;6.554;2024-01-06T08:39:41;18.77;;;13.77;;
72895;SDS011;61036;53.224;6.554;2024-01-06T08:42:07;18.37;;;13.57;;
72895;SDS011;61036;53.224;6.554;2024-01-06T08:44:32;20.40;;;15.07;;
72895;SDS011;61036;53.224;6.554;2024-01-06T08:46:58;19.33;;;14.90;;
72895;SDS011;61036;53.224;6.554;2024-01-06T08:49:23;20.87;;;14.30;;
72895;SDS011;61036;53.224;6.554;2024-01-06T08:51:49;19.67;;;15.07;;
72895;SDS011;61036;53.224;6.554;2024-01-06T08:54:15;17.93;;;13.67;;
72895;SDS011;61036;53.224;6.554;2024-01-06T08:56:41;19.20;;;14.73;;
72895;SDS011;61036;53.224;6.554;2024-01-06T08:59:06;20.67;;;14.87;;
72895;SDS011;61036;53.224;6.554;2024-01-06T09:01:32;20.07;;;15.00;;
72895;SDS011;61036;53.224;6.554;2024-01-06T09:03:59;22.43;;;14.60;;
72895;SDS011;61036;53.224;6.554;2024-01-06T09:06:24;21.10;;;14.60;;
72895;SDS011;61036;53.224;6.554;2024-01-06T09:08:50;28.87;;;14.90;;
72895;SDS011;61036;53.224;6.554;2024-01-06T09:11:15;18.73;;;14.30;;
72895;SDS011;61036;53.224;6.554;2024-01-06T09:13:41;18.17;;;13.93;;
72895;SDS011;61036;53.224;6.554;2024-01-06T09:16:06;21.73;;;14.60;;
72895;SDS011;61036;53.224;6.554;2024-01-06T09:18:32;16.07;;;12.57;;
72895;SDS011;61036;53.224;6.554;2024-01-06T09:20:57;17.93;;;13.53;;
72895;SDS011;61036;53.224;6.554;2024-01-06T09:23:23;18.63;;;13.27;;
72895;SDS011;61036;53.224;6.554;2024-01-06T09:25:48;18.33;;;13.23;;
72895;SDS011;61036;53.224;6.554;2024-01-06T09:28:15;18.20;;;13.10;;
72895;SDS011;61036;53.224;6.554;2024-01-06T09:30:41;17.80;;;13.03;;
72895;SDS011;61036;53.224;6.554;2024-01-06T09:33:06;19.13;;;13.13;;
72895;SDS011;61036;53.224;6.554;2024-01-06T09:35:33;16.90;;;12.63;;
72895;SDS011;61036;53.224;6.554;2024-01-06T09:37:59;17.30;;;13.10;;
72895;SDS011;61036;53.224;6.554;2024-01-06T09:40:24;18.27;;;12.70;;
72895;SDS011;61036;53.224;6.554;2024-01-06T09:42:50;18.50;;;13.47;;
72895;SDS011;61036;53.224;6.554;2024-01-06T09:45:16;18.63;;;13.57;;
72895;SDS011;61036;53.224;6.554;2024-01-06T09:47:42;16.67;;;12.93;;
72895;SDS011;61036;53.224;6.554;2024-01-06T09:50:14;18.90;;;14.40;;
72895;SDS011;61036;53.224;6.554;2024-01-06T09:52:45;18.47;;;13.67;;
72895;SDS011;61036;53.224;6.554;2024-01-06T09:55:17;19.37;;;13.17;;
72895;SDS011;61036;53.224;6.554;2024-01-06T09:57:48;19.27;;;13.63;;
72895;SDS011;61036;53.224;6.554;2024-01-06T10:00:13;19.57;;;13.47;;
72895;SDS011;61036;53.224;6.554;2024-01-06T10:02:39;19.07;;;13.50;;
72895;SDS011;61036;53.224;6.554;2024-01-06T10:05:06;16.70;;;12.83;;
72895;SDS011;61036;53.224;6.554;2024-01-06T10:07:32;17.83;;;13.00;;
72895;SDS011;61036;53.224;6.554;2024-01-06T10:09:58;20.43;;;13.50;;
72895;SDS011;61036;53.224;6.554;2024-01-06T10:12:24;18.27;;;13.60;;
72895;SDS011;61036;53.224;6.554;2024-01-06T10:14:50;21.27;;;14.07;;
72895;SDS011;61036;53.224;6.554;2024-01-06T10:17:16;19.73;;;13.23;;
72895;SDS011;61036;53.224;6.554;2024-01-06T10:19:44;19.50;;;14.67;;
72895;SDS011;61036;53.224;6.554;2024-01-06T10:22:10;18.60;;;13.90;;
72895;SDS011;61036;53.224;6.554;2024-01-06T10:24:39;16.83;;;12.93;;
72895;SDS011;61036;53.224;6.554;2024-01-06T10:27:05;20.27;;;15.03;;
72895;SDS011;61036;53.224;6.554;2024-01-06T10:29:31;19.13;;;14.83;;
72895;SDS011;61036;53.224;6.554;2024-01-06T10:31:57;18.80;;;13.70;;
72895;SDS011;61036;53.224;6.554;2024-01-06T10:34:23;17.67;;;13.53;;
72895;SDS011;61036;53.224;6.554;2024-01-06T10:36:49;18.77;;;13.63;;
72895;SDS011;61036;53.224;6.554;2024-01-06T10:39:17;17.50;;;13.47;;
72895;SDS011;61036;53.224;6.554;2024-01-06T10:41:43;20.40;;;13.87;;
72895;SDS011;61036;53.224;6.554;2024-01-06T10:44:10;19.20;;;13.47;;
72895;SDS011;61036;53.224;6.554;2024-01-06T10:46:36;19.47;;;13.77;;
72895;SDS011;61036;53.224;6.554;2024-01-06T10:49:05;17.40;;;13.67;;
72895;SDS011;61036;53.224;6.554;2024-01-06T10:51:33;20.90;;;13.60;;
72895;SDS011;61036;53.224;6.554;2024-01-06T10:54:00;18.43;;;13.70;;
72895;SDS011;61036;53.224;6.554;2024-01-06T10:56:26;15.80;;;12.37;;
72895;SDS011;61036;53.224;6.554;2024-01-06T10:58:54;16.40;;;13.10;;
72895;SDS011;61036;53.224;6.554;2024-01-06T11:01:23;16.93;;;12.93;;
72895;SDS011;61036;53.224;6.554;2024-01-06T11:03:49;16.23;;;12.70;;
72895;SDS011;61036;53.224;6.554;2024-01-06T11:06:16;16.57;;;12.50;;
72895;SDS011;61036;53.224;6.554;2024-01-06T11:11:32;16.33;;;13.13;;
72895;SDS011;61036;53.224;6.554;2024-01-06T11:14:18;15.53;;;12.13;;
72895;SDS011;61036;53.224;6.554;2024-01-06T11:16:47;16.83;;;12.40;;
72895;SDS011;61036;53.224;6.554;2024-01-06T11:24:54;15.07;;;11.80;;
72895;SDS011;61036;53.224;6.554;2024-01-06T11:27:25;13.43;;;10.70;;
72895;SDS011;61036;53.224;6.554;2024-01-06T11:29:55;13.33;;;10.50;;
72895;SDS011;61036;53.224;6.554;2024-01-06T11:32:32;13.57;;;10.40;;
72895;SDS011;61036;53.224;6.554;2024-01-06T11:40:10;14.00;;;9.63;;
72895;SDS011;61036;53.224;6.554;2024-01-06T11:42:41;13.23;;;9.70;;
72895;SDS011;61036;53.224;6.554;2024-01-06T11:45:07;12.67;;;8.63;;
72895;SDS011;61036;53.224;6.554;2024-01-06T11:47:34;12.23;;;9.40;;
72895;SDS011;61036;53.224;6.554;2024-01-06T11:50:01;12.20;;;9.40;;
72895;SDS011;61036;53.224;6.554;2024-01-06T11:52:31;11.50;;;8.97;;
72895;SDS011;61036;53.224;6.554;2024-01-06T11:54:57;12.17;;;9.03;;
72895;SDS011;61036;53.224;6.554;2024-01-06T11:57:27;11.63;;;8.47;;
72895;SDS011;61036;53.224;6.554;2024-01-06T11:59:53;11.73;;;9.00;;
72895;SDS011;61036;53.224;6.554;2024-01-06T12:02:19;12.17;;;8.83;;
72895;SDS011;61036;53.224;6.554;2024-01-06T12:04:51;13.67;;;8.77;;
72895;SDS011;61036;53.224;6.554;2024-01-06T12:07:18;12.23;;;8.57;;
72895;SDS011;61036;53.224;6.554;2024-01-06T12:09:45;11.60;;;8.97;;
72895;SDS011;61036;53.224;6.554;2024-01-06T12:12:14;11.43;;;8.37;;
72895;SDS011;61036;53.224;6.554;2024-01-06T12:14:41;13.57;;;9.13;;
72895;SDS011;61036;53.224;6.554;2024-01-06T12:17:10;12.30;;;9.07;;
72895;SDS011;61036;53.224;6.554;2024-01-06T12:19:38;13.27;;;8.57;;
72895;SDS011;61036;53.224;6.554;2024-01-06T12:22:07;11.87;;;8.60;;
72895;SDS011;61036;53.224;6.554;2024-01-06T12:24:32;12.50;;;8.77;;
72895;SDS011;61036;53.224;6.554;2024-01-06T12:26:58;12.37;;;9.17;;
72895;SDS011;61036;53.224;6.554;2024-01-06T12:29:27;12.47;;;8.87;;
72895;SDS011;61036;53.224;6.554;2024-01-06T12:31:54;11.30;;;8.27;;
72895;SDS011;61036;53.224;6.554;2024-01-06T12:34:20;12.17;;;8.80;;
72895;SDS011;61036;53.224;6.554;2024-01-06T12:36:47;11.77;;;8.63;;
72895;SDS011;61036;53.224;6.554;2024-01-06T12:39:17;12.50;;;8.73;;
72895;SDS011;61036;53.224;6.554;2024-01-06T12:41:43;12.57;;;8.60;;
72895;SDS011;61036;53.224;6.554;2024-01-06T12:44:09;12.40;;;8.00;;
72895;SDS011;61036;53.224;6.554;2024-01-06T12:46:35;11.07;;;8.47;;
72895;SDS011;61036;53.224;6.554;2024-01-06T12:49:00;12.07;;;8.83;;
72895;SDS011;61036;53.224;6.554;2024-01-06T12:51:26;12.63;;;8.90;;
72895;SDS011;61036;53.224;6.554;2024-01-06T12:53:51;12.20;;;8.20;;
72895;SDS011;61036;53.224;6.554;2024-01-06T12:56:17;11.27;;;8.10;;
72895;SDS011;61036;53.224;6.554;2024-01-06T12:58:43;11.60;;;8.53;;
72895;SDS011;61036;53.224;6.554;2024-01-06T13:01:09;12.10;;;8.97;;
72895;SDS011;61036;53.224;6.554;2024-01-06T13:03:35;12.00;;;8.47;;
72895;SDS011;61036;53.224;6.554;2024-01-06T13:06:01;10.47;;;8.17;;
72895;SDS011;61036;53.224;6.554;2024-01-06T13:08:27;11.83;;;8.83;;
72895;SDS011;61036;53.224;6.554;2024-01-06T13:10:53;12.40;;;8.60;;
72895;SDS011;61036;53.224;6.554;2024-01-06T13:13:20;12.40;;;8.93;;
72895;SDS011;61036;53.224;6.554;2024-01-06T13:15:45;14.00;;;9.33;;
72895;SDS011;61036;53.224;6.554;2024-01-06T13:18:11;11.77;;;8.37;;
72895;SDS011;61036;53.224;6.554;2024-01-06T13:20:38;13.70;;;9.03;;
72895;SDS011;61036;53.224;6.554;2024-01-06T13:23:06;11.80;;;8.80;;
72895;SDS011;61036;53.224;6.554;2024-01-06T13:25:32;13.77;;;9.33;;
72895;SDS011;61036;53.224;6.554;2024-01-06T13:27:58;12.03;;;8.57;;
72895;SDS011;61036;53.224;6.554;2024-01-06T13:30:24;12.50;;;9.00;;
72895;SDS011;61036;53.224;6.554;2024-01-06T13:32:51;11.23;;;8.30;;
72895;SDS011;61036;53.224;6.554;2024-01-06T13:35:20;11.60;;;8.93;;
72895;SDS011;61036;53.224;6.554;2024-01-06T13:37:47;12.03;;;8.33;;
72895;SDS011;61036;53.224;6.554;2024-01-06T13:40:13;12.40;;;8.90;;
72895;SDS011;61036;53.224;6.554;2024-01-06T13:42:39;14.33;;;9.67;;
72895;SDS011;61036;53.224;6.554;2024-01-06T13:45:06;14.20;;;10.13;;
72895;SDS011;61036;53.224;6.554;2024-01-06T13:47:32;13.53;;;9.40;;
72895;SDS011;61036;53.224;6.554;2024-01-06T13:49:58;12.83;;;9.27;;
72895;SDS011;61036;53.224;6.554;2024-01-06T13:52:23;13.50;;;9.07;;
72895;SDS011;61036;53.224;6.554;2024-01-06T13:54:49;13.80;;;10.20;;
72895;SDS011;61036;53.224;6.554;2024-01-06T13:57:15;12.97;;;8.90;;
72895;SDS011;61036;53.224;6.554;2024-01-06T13:59:40;12.83;;;9.37;;
72895;SDS011;61036;53.224;6.554;2024-01-06T14:02:10;13.23;;;9.53;;
72895;SDS011;61036;53.224;6.554;2024-01-06T14:04:36;12.97;;;9.83;;
72895;SDS011;61036;53.224;6.554;2024-01-06T14:07:02;12.70;;;8.90;;
72895;SDS011;61036;53.224;6.554;2024-01-06T14:09:27;12.43;;;8.97;;
72895;SDS011;61036;53.224;6.554;2024-01-06T14:11:53;12.17;;;8.83;;
72895;SDS011;61036;53.224;6.554;2024-01-06T14:14:19;14.53;;;9.47;;
72895;SDS011;61036;53.224;6.554;2024-01-06T14:16:45;13.27;;;9.23;;
72895;SDS011;61036;53.224;6.554;2024-01-06T14:19:12;12.90;;;9.50;;
72895;SDS011;61036;53.224;6.554;2024-01-06T14:21:37;13.77;;;9.93;;
72895;SDS011;61036;53.224;6.554;2024-01-06T14:24:04;16.07;;;9.93;;
72895;SDS011;61036;53.224;6.554;2024-01-06T14:26:31;13.93;;;9.73;;
72895;SDS011;61036;53.224;6.554;2024-01-06T14:28:57;15.20;;;9.83;;
72895;SDS011;61036;53.224;6.554;2024-01-06T14:31:24;13.03;;;9.10;;
72895;SDS011;61036;53.224;6.554;2024-01-06T14:33:49;13.80;;;9.83;;